createdAt,value
2022-12-28T00:04:29.096Z,20.1
2022-12-28T00:09:51.723Z,20.1
2022-12-28T00:16:03.981Z,20.1
2022-12-28T00:21:26.850Z,20.1
2022-12-28T00:26:51.187Z,20.1
2022-12-28T00:32:15.533Z,20.1
2022-12-28T00:38:19.208Z,20.1
2022-12-28T00:43:49.355Z,20.1
2022-12-28T00:49:11.345Z,20.1
2022-12-28T00:54:34.296Z,20.1
2022-12-28T00:59:56.894Z,20.1
2022-12-28T01:05:20.299Z,20.1
2022-12-28T01:10:27.784Z,20.1
2022-12-28T01:15:50.353Z,20
2022-12-28T01:21:01.015Z,20
2022-12-28T01:26:23.653Z,20
2022-12-28T01:31:46.643Z,20
2022-12-28T01:36:53.015Z,20
2022-12-28T01:42:15.655Z,20
2022-12-28T01:47:46.191Z,20
2022-12-28T01:52:53.035Z,20
2022-12-28T01:58:01.654Z,19.9
2022-12-28T02:03:09.692Z,19.9
2022-12-28T02:08:15.682Z,19.9
2022-12-28T02:14:27.445Z,20
2022-12-28T02:19:24.096Z,20.1
2022-12-28T02:24:45.493Z,20.1
2022-12-28T02:29:50.312Z,20.3
2022-12-28T02:35:14.607Z,20.3
2022-12-28T02:40:36.751Z,20.4
2022-12-28T02:45:43.864Z,20.4
2022-12-28T02:51:06.254Z,20.5
2022-12-28T02:56:13.524Z,20.6
2022-12-28T03:01:21.428Z,20.8
2022-12-28T03:06:50.562Z,20.9
2022-12-28T03:12:12.689Z,20.9
2022-12-28T03:17:23.631Z,21
2022-12-28T03:22:29.672Z,21
2022-12-28T03:27:36.417Z,21.1
2022-12-28T03:32:59.424Z,21.2
2022-12-28T03:38:21.038Z,21.3
2022-12-28T03:43:43.203Z,21.3
2022-12-28T03:49:30.360Z,21.4
2022-12-28T03:54:52.268Z,21.4
2022-12-28T04:00:14.172Z,21.4
2022-12-28T04:05:38.353Z,21.4
2022-12-28T04:11:00.450Z,21.5
2022-12-28T04:16:28.404Z,21.5
2022-12-28T04:21:51.291Z,21.6
2022-12-28T04:27:12.626Z,21.6
2022-12-28T04:32:03.779Z,21.6
2022-12-28T04:36:55.566Z,21.6
2022-12-28T04:42:31.107Z,21.6
2022-12-28T04:47:56.781Z,21.6
2022-12-28T04:53:04.357Z,21.6
2022-12-28T04:58:42.837Z,21.7
2022-12-28T05:04:16.079Z,21.7
2022-12-28T05:09:23.382Z,21.7
2022-12-28T05:14:53.160Z,21.7
2022-12-28T05:19:59.548Z,21.8
2022-12-28T05:25:12.415Z,21.8
2022-12-28T05:30:35.066Z,21.8
2022-12-28T05:35:58.372Z,21.8
2022-12-28T05:41:22.742Z,21.8
2022-12-28T05:46:35.149Z,21.8
2022-12-28T05:52:03.113Z,21.8
2022-12-28T05:57:29.440Z,21.8
2022-12-28T06:02:41.345Z,21.7
2022-12-28T06:08:04.109Z,21.8
2022-12-28T06:13:29.328Z,21.7
2022-12-28T06:18:36.700Z,21.7
2022-12-28T06:23:49.806Z,21.7
2022-12-28T06:29:12.572Z,21.7
2022-12-28T06:34:37.063Z,21.7
2022-12-28T06:40:03.862Z,21.8
2022-12-28T06:45:53.797Z,21.8
2022-12-28T06:51:16.953Z,22
2022-12-28T07:01:54.590Z,22.2
2022-12-28T07:07:17.883Z,22.1
2022-12-28T07:12:45.558Z,22
2022-12-28T07:18:14.678Z,22
2022-12-28T07:23:37.205Z,21.9
2022-12-28T07:28:44.587Z,21.9
2022-12-28T07:33:59.651Z,21.9
2022-12-28T07:39:28.340Z,21.9
2022-12-28T07:44:54.747Z,21.9
2022-12-28T07:50:18.115Z,21.9
2022-12-28T07:55:44.181Z,21.8
2022-12-28T08:01:12.896Z,21.8
2022-12-28T08:06:22.203Z,21.8
2022-12-28T08:11:13.615Z,21.8
2022-12-28T08:16:20.938Z,21.8
2022-12-28T08:21:45.834Z,21.7
2022-12-28T08:26:52.543Z,21.7
2022-12-28T08:32:00.210Z,21.6
2022-12-28T08:36:52.308Z,21.7
2022-12-28T08:42:04.361Z,21.6
2022-12-28T08:47:12.306Z,21.6
2022-12-28T08:52:39.274Z,21.6
2022-12-28T08:58:08.121Z,21.6
2022-12-28T09:03:16.441Z,21.6
2022-12-28T09:09:04.728Z,21.6
2022-12-28T09:14:17.138Z,21.6
2022-12-28T09:19:28.108Z,21.6
2022-12-28T09:24:20.217Z,21.5
2022-12-28T09:29:28.054Z,21.5
2022-12-28T09:35:31.832Z,21.5
2022-12-28T09:40:39.357Z,21.5
2022-12-28T09:46:02.356Z,21.6
2022-12-28T09:51:25.407Z,21.6
2022-12-28T09:56:51.282Z,21.6
2022-12-28T10:01:58.576Z,21.5
2022-12-28T10:06:51.424Z,21.5
2022-12-28T10:11:58.750Z,21.6
2022-12-28T10:17:45.797Z,21.6
2022-12-28T10:23:22.743Z,21.5
2022-12-28T10:29:22.168Z,21.5
2022-12-28T10:34:51.244Z,21.5
2022-12-28T10:40:19.993Z,21.4
2022-12-28T11:05:41.242Z,21.4
2022-12-28T11:11:04.168Z,21.4
2022-12-28T11:16:16.427Z,21.4
2022-12-28T11:21:30.614Z,21.4
2022-12-28T11:26:57.894Z,21.4
2022-12-28T11:32:08.116Z,21.4
2022-12-28T11:37:17.419Z,21.4
2022-12-28T11:43:09.529Z,21.4
2022-12-28T11:48:35.295Z,21.4
2022-12-28T11:54:03.274Z,21.3
2022-12-28T11:59:11.009Z,21.3
2022-12-28T12:04:24.190Z,21.3
2022-12-28T12:09:47.093Z,21.4
2022-12-28T12:15:11.708Z,21.4
2022-12-28T12:20:37.002Z,21.4
2022-12-28T12:26:05.746Z,21.4
2022-12-28T12:31:15.440Z,21.4
2022-12-28T12:36:38.312Z,21.4
2022-12-28T12:42:00.736Z,21.4
2022-12-28T12:47:24.039Z,21.4
2022-12-28T12:52:45.104Z,21.4
2022-12-28T12:58:08.233Z,21.4
2022-12-28T13:03:32.668Z,21.3
2022-12-28T13:08:57.082Z,21.3
2022-12-28T13:14:21.203Z,21.3
2022-12-28T13:20:01.061Z,21.3
2022-12-28T13:25:28.872Z,21.3
2022-12-28T13:30:55.708Z,21.3
2022-12-28T13:36:22.439Z,21.3
2022-12-28T13:41:14.248Z,21.3
2022-12-28T13:46:40.811Z,21.3
2022-12-28T13:52:09.831Z,21.3
2022-12-28T13:58:15.995Z,21.3
2022-12-28T14:03:42.410Z,21.3
2022-12-28T14:09:54.918Z,21.3
2022-12-28T14:15:17.483Z,21.2
2022-12-28T14:20:47.758Z,21.2
2022-12-28T14:26:14.281Z,21.2
2022-12-28T14:31:25.703Z,21.2
2022-12-28T15:24:51.150Z,21.1
2022-12-28T15:30:51.920Z,21.1
2022-12-28T15:35:59.155Z,21.1
2022-12-28T15:41:23.838Z,21.1
2022-12-28T15:46:19.763Z,21.1
2022-12-28T15:51:16.213Z,21.1
2022-12-28T15:56:24.095Z,21.1
2022-12-28T16:01:37.768Z,21.1
2022-12-28T16:06:47.429Z,21
2022-12-28T16:12:11.986Z,21
2022-12-28T16:17:36.851Z,21
2022-12-28T16:22:48.249Z,21
2022-12-28T16:27:39.698Z,21
2022-12-28T16:32:52.185Z,20.9
2022-12-28T16:38:01.362Z,20.9
2022-12-28T16:43:08.034Z,20.9
2022-12-28T16:48:18.290Z,20.9
2022-12-28T16:53:25.117Z,20.9
2022-12-28T16:58:49.355Z,20.9
2022-12-28T17:04:20.658Z,20.9
2022-12-28T17:09:48.309Z,20.9
2022-12-28T17:15:27.239Z,20.9
2022-12-28T17:20:50.615Z,20.8
2022-12-28T17:26:13.918Z,20.8
2022-12-28T17:31:43.919Z,20.8
2022-12-28T17:37:07.056Z,20.8
2022-12-28T17:42:33.560Z,20.8
2022-12-28T17:47:46.440Z,20.8
2022-12-28T17:53:13.332Z,20.8
2022-12-28T17:58:38.860Z,20.8
2022-12-28T18:04:07.240Z,20.8
2022-12-28T18:09:14.876Z,20.8
2022-12-28T18:14:36.856Z,20.8
2022-12-28T18:20:06.420Z,20.8
2022-12-28T18:25:36.460Z,20.7
2022-12-28T18:30:43.260Z,20.7
2022-12-28T18:36:12.647Z,20.7
2022-12-28T18:41:37.887Z,20.7
2022-12-28T18:46:30.215Z,20.6
2022-12-28T18:51:52.880Z,20.6
2022-12-28T18:57:04.905Z,20.6
2022-12-28T19:02:56.203Z,20.6
2022-12-28T19:08:22.705Z,20.6
2022-12-28T19:13:37.915Z,20.6
2022-12-28T19:19:05.866Z,20.6
2022-12-28T19:24:33.218Z,20.5
2022-12-28T19:29:56.661Z,20.5
2022-12-28T19:35:21.755Z,20.5
2022-12-28T19:40:47.589Z,20.4
2022-12-28T19:46:17.044Z,20.4
2022-12-28T19:51:47.091Z,20.4
2022-12-28T19:57:09.792Z,20.4
2022-12-28T20:02:35.113Z,20.4
2022-12-28T20:07:59.340Z,20.4
2022-12-28T20:13:06.913Z,20.4
2022-12-28T20:18:30.925Z,20.4
2022-12-28T20:24:12.727Z,20.4
2022-12-28T20:29:36.665Z,20.6
2022-12-28T20:34:48.006Z,20.8
2022-12-28T20:39:39.369Z,20.8
2022-12-28T20:44:46.643Z,20.9
2022-12-28T20:49:08.362Z,21
2022-12-28T20:54:15.986Z,21.1
2022-12-28T21:04:40.158Z,21.2
2022-12-28T21:09:32.006Z,21.3
2022-12-28T21:14:39.977Z,21.4
2022-12-28T21:19:47.327Z,21.4
2022-12-28T21:24:56.695Z,21.4
2022-12-28T21:30:19.762Z,21.5
2022-12-28T21:35:50.380Z,21.5
2022-12-28T21:40:57.416Z,21.4
2022-12-28T21:45:49.162Z,21.3
2022-12-28T21:51:12.244Z,21.2
2022-12-28T21:56:19.235Z,21.2
2022-12-28T22:01:26.885Z,21.2
2022-12-28T22:06:39.606Z,21.2
2022-12-28T22:11:47.201Z,21.2
2022-12-28T22:17:14.186Z,21.2
2022-12-28T22:23:03.792Z,21.3
2022-12-28T22:28:26.652Z,21.2
2022-12-28T22:33:34.394Z,21.3
2022-12-28T22:38:59.349Z,21.2
2022-12-28T22:44:07.159Z,21.3
2022-12-28T22:49:30.739Z,21.3
2022-12-28T22:54:44.521Z,21.3
2022-12-28T22:59:54.684Z,21.2
2022-12-28T23:05:19.035Z,21.2
2022-12-28T23:10:47.588Z,21.2
2022-12-28T23:15:39.436Z,21.2
2022-12-28T23:21:03.026Z,21.2
2022-12-28T23:26:25.881Z,21.2
2022-12-28T23:31:17.874Z,21.2
2022-12-28T23:36:09.973Z,21.2
2022-12-28T23:41:33.133Z,21.2
2022-12-28T23:51:49.697Z,21.2
